Terminal Aerodrome Forecast
Issued by NWS

Home | Current Version | Previous Version | Text Only | Print | Product List | Glossary On
Versions: 1 2 3 4 5 6 7 8 9 10 11 12 13 14
000
FTUS42 TJSJ 272346
TAFJBQ
TAF
TJBQ 272346Z 2800/2824 10020G30KT P6SM VCSH SCT020 BKN040
     FM280700 04020G35KT 5SM +SHRA VCTS BKN025CB OVC040
      TEMPO 2807/2809 VRB30G45KT 3SM +TSRA BKN020CB OVC030
     FM280900 12015G30KT P6SM VCTS SCT020CB BKN040
     FM282000 17014G20KT P6SM VCTS SCT025CB BKN050
      AMD NOT SKED 2802/2811=

USA.gov is the U.S. government's official web portal to all federal, state and local government web resources and services.